sensor_id;sensor_type;location;lat;lon;timestamp;temperature;humidity
20650;DHT22;10484;48.736;9.332;2023-03-14T00:01:06;12.30;1.00
20650;DHT22;10484;48.736;9.332;2023-03-14T00:03:32;12.30;1.00
20650;DHT22;10484;48.736;9.332;2023-03-14T00:06:02;12.30;1.00
20650;DHT22;10484;48.736;9.332;2023-03-14T00:08:28;12.30;1.00
20650;DHT22;10484;48.736;9.332;2023-03-14T00:10:54;12.30;1.00
20650;DHT22;10484;48.736;9.332;2023-03-14T00:13:19;12.30;1.00
20650;DHT22;10484;48.736;9.332;2023-03-14T00:15:45;12.20;1.00
20650;DHT22;10484;48.736;9.332;2023-03-14T00:18:10;12.00;1.00
20650;DHT22;10484;48.736;9.332;2023-03-14T00:20:36;12.00;1.00
20650;DHT22;10484;48.736;9.332;2023-03-14T00:23:01;11.90;1.00
20650;DHT22;10484;48.736;9.332;2023-03-14T00:25:27;12.00;1.00
20650;DHT22;10484;48.736;9.332;2023-03-14T00:27:53;11.90;1.00
20650;DHT22;10484;48.736;9.332;2023-03-14T00:30:19;11.90;1.00
20650;DHT22;10484;48.736;9.332;2023-03-14T00:32:44;11.90;1.00
20650;DHT22;10484;48.736;9.332;2023-03-14T00:35:10;11.90;1.00
20650;DHT22;10484;48.736;9.332;2023-03-14T00:37:35;11.90;1.00
20650;DHT22;10484;48.736;9.332;2023-03-14T00:40:01;11.90;1.00
20650;DHT22;10484;48.736;9.332;2023-03-14T00:42:27;11.90;1.00
20650;DHT22;10484;48.736;9.332;2023-03-14T00:44:53;11.90;1.00
20650;DHT22;10484;48.736;9.332;2023-03-14T00:47:18;11.90;1.00
20650;DHT22;10484;48.736;9.332;2023-03-14T00:49:44;11.80;1.00
20650;DHT22;10484;48.736;9.332;2023-03-14T00:52:09;11.80;1.00
20650;DHT22;10484;48.736;9.332;2023-03-14T00:54:35;11.80;1.00
20650;DHT22;10484;48.736;9.332;2023-03-14T00:57:01;11.80;1.00
20650;DHT22;10484;48.736;9.332;2023-03-14T00:59:26;11.70;1.00
20650;DHT22;10484;48.736;9.332;2023-03-14T01:01:52;11.70;1.00
20650;DHT22;10484;48.736;9.332;2023-03-14T01:04:17;11.70;1.00
20650;DHT22;10484;48.736;9.332;2023-03-14T01:06:43;11.70;1.00
20650;DHT22;10484;48.736;9.332;2023-03-14T01:09:09;11.70;1.00
20650;DHT22;10484;48.736;9.332;2023-03-14T01:11:35;11.70;1.00
20650;DHT22;10484;48.736;9.332;2023-03-14T01:14:02;11.70;1.00
20650;DHT22;10484;48.736;9.332;2023-03-14T01:16:29;11.80;1.00
20650;DHT22;10484;48.736;9.332;2023-03-14T01:18:55;11.70;1.00
20650;DHT22;10484;48.736;9.332;2023-03-14T01:21:23;11.70;1.00
20650;DHT22;10484;48.736;9.332;2023-03-14T01:23:50;11.70;1.00
20650;DHT22;10484;48.736;9.332;2023-03-14T01:26:19;11.60;1.00
20650;DHT22;10484;48.736;9.332;2023-03-14T01:28:46;11.60;1.00
20650;DHT22;10484;48.736;9.332;2023-03-14T01:31:12;11.70;1.00
20650;DHT22;10484;48.736;9.332;2023-03-14T01:33:39;11.60;1.00
20650;DHT22;10484;48.736;9.332;2023-03-14T01:36:05;11.60;1.00
20650;DHT22;10484;48.736;9.332;2023-03-14T01:38:32;11.60;1.00
20650;DHT22;10484;48.736;9.332;2023-03-14T01:40:58;11.60;1.00
20650;DHT22;10484;48.736;9.332;2023-03-14T01:43:24;11.60;1.00
20650;DHT22;10484;48.736;9.332;2023-03-14T01:48:40;11.60;1.00
20650;DHT22;10484;48.736;9.332;2023-03-14T01:51:11;11.60;1.00
20650;DHT22;10484;48.736;9.332;2023-03-14T01:53:39;11.60;1.00
20650;DHT22;10484;48.736;9.332;2023-03-14T01:56:07;11.60;1.00
20650;DHT22;10484;48.736;9.332;2023-03-14T01:58:34;11.50;1.00
20650;DHT22;10484;48.736;9.332;2023-03-14T02:01:01;11.50;1.00
20650;DHT22;10484;48.736;9.332;2023-03-14T02:03:28;11.50;1.00
20650;DHT22;10484;48.736;9.332;2023-03-14T02:05:59;11.50;1.00
20650;DHT22;10484;48.736;9.332;2023-03-14T02:08:29;11.50;1.00
20650;DHT22;10484;48.736;9.332;2023-03-14T02:10:56;11.50;1.00
20650;DHT22;10484;48.736;9.332;2023-03-14T02:13:22;11.50;1.00
20650;DHT22;10484;48.736;9.332;2023-03-14T02:15:48;11.40;1.00
20650;DHT22;10484;48.736;9.332;2023-03-14T02:18:16;11.40;1.00
20650;DHT22;10484;48.736;9.332;2023-03-14T02:20:47;11.40;1.00
20650;DHT22;10484;48.736;9.332;2023-03-14T02:23:16;11.40;1.00
20650;DHT22;10484;48.736;9.332;2023-03-14T02:25:59;11.30;1.00
20650;DHT22;10484;48.736;9.332;2023-03-14T02:28:25;11.30;1.00
20650;DHT22;10484;48.736;9.332;2023-03-14T02:30:51;11.30;1.00
20650;DHT22;10484;48.736;9.332;2023-03-14T02:33:19;11.30;1.00
20650;DHT22;10484;48.736;9.332;2023-03-14T02:35:53;11.20;1.00
20650;DHT22;10484;48.736;9.332;2023-03-14T02:40:50;11.20;1.00
20650;DHT22;10484;48.736;9.332;2023-03-14T02:43:16;11.20;1.00
20650;DHT22;10484;48.736;9.332;2023-03-14T02:45:44;11.20;1.00
20650;DHT22;10484;48.736;9.332;2023-03-14T02:48:16;11.20;1.00
20650;DHT22;10484;48.736;9.332;2023-03-14T02:50:44;11.20;1.00
20650;DHT22;10484;48.736;9.332;2023-03-14T02:53:13;11.20;1.00
20650;DHT22;10484;48.736;9.332;2023-03-14T02:55:39;11.10;1.00
20650;DHT22;10484;48.736;9.332;2023-03-14T02:58:04;11.10;1.00
20650;DHT22;10484;48.736;9.332;2023-03-14T03:00:30;11.10;1.00
20650;DHT22;10484;48.736;9.332;2023-03-14T03:02:56;11.10;1.00
20650;DHT22;10484;48.736;9.332;2023-03-14T03:05:21;11.10;1.00
20650;DHT22;10484;48.736;9.332;2023-03-14T03:07:47;11.10;1.00
20650;DHT22;10484;48.736;9.332;2023-03-14T03:10:12;11.00;1.00
20650;DHT22;10484;48.736;9.332;2023-03-14T03:12:38;11.00;1.00
20650;DHT22;10484;48.736;9.332;2023-03-14T03:15:04;11.00;1.00
20650;DHT22;10484;48.736;9.332;2023-03-14T03:17:29;11.00;1.00
20650;DHT22;10484;48.736;9.332;2023-03-14T03:19:55;11.00;1.00
20650;DHT22;10484;48.736;9.332;2023-03-14T03:22:21;11.00;1.00
20650;DHT22;10484;48.736;9.332;2023-03-14T03:24:46;11.00;1.00
20650;DHT22;10484;48.736;9.332;2023-03-14T03:27:12;11.00;1.00
20650;DHT22;10484;48.736;9.332;2023-03-14T03:29:37;10.90;1.00
20650;DHT22;10484;48.736;9.332;2023-03-14T03:32:03;10.90;1.00
20650;DHT22;10484;48.736;9.332;2023-03-14T03:34:29;10.90;1.00
20650;DHT22;10484;48.736;9.332;2023-03-14T03:36:57;10.90;1.00
20650;DHT22;10484;48.736;9.332;2023-03-14T03:39:23;10.80;1.00
20650;DHT22;10484;48.736;9.332;2023-03-14T03:41:48;10.80;1.00
20650;DHT22;10484;48.736;9.332;2023-03-14T03:44:14;10.80;1.00
20650;DHT22;10484;48.736;9.332;2023-03-14T03:46:39;10.80;1.00
20650;DHT22;10484;48.736;9.332;2023-03-14T03:49:05;10.80;1.00
20650;DHT22;10484;48.736;9.332;2023-03-14T03:51:31;10.80;1.00
20650;DHT22;10484;48.736;9.332;2023-03-14T03:53:56;10.80;1.00
20650;DHT22;10484;48.736;9.332;2023-03-14T03:56:22;10.80;1.00
20650;DHT22;10484;48.736;9.332;2023-03-14T03:58:48;10.80;1.00
20650;DHT22;10484;48.736;9.332;2023-03-14T04:01:13;10.70;1.00
20650;DHT22;10484;48.736;9.332;2023-03-14T04:03:39;10.70;1.00
20650;DHT22;10484;48.736;9.332;2023-03-14T04:06:08;10.70;1.00
20650;DHT22;10484;48.736;9.332;2023-03-14T04:08:34;10.70;1.00
20650;DHT22;10484;48.736;9.332;2023-03-14T04:11:00;10.70;1.00
20650;DHT22;10484;48.736;9.332;2023-03-14T04:13:27;10.70;1.00
20650;DHT22;10484;48.736;9.332;2023-03-14T04:15:53;10.60;1.00
20650;DHT22;10484;48.736;9.332;2023-03-14T04:18:20;10.60;1.00
20650;DHT22;10484;48.736;9.332;2023-03-14T04:20:50;10.60;1.00
20650;DHT22;10484;48.736;9.332;2023-03-14T04:23:16;10.60;1.00
20650;DHT22;10484;48.736;9.332;2023-03-14T04:25:41;10.60;1.00
20650;DHT22;10484;48.736;9.332;2023-03-14T04:28:07;10.60;1.00
20650;DHT22;10484;48.736;9.332;2023-03-14T04:30:32;10.50;1.00
20650;DHT22;10484;48.736;9.332;2023-03-14T04:32:58;10.50;1.00
20650;DHT22;10484;48.736;9.332;2023-03-14T04:35:24;10.50;1.00
20650;DHT22;10484;48.736;9.332;2023-03-14T04:37:49;10.50;1.00
20650;DHT22;10484;48.736;9.332;2023-03-14T04:40:17;10.50;1.00
20650;DHT22;10484;48.736;9.332;2023-03-14T04:42:43;10.50;1.00
20650;DHT22;10484;48.736;9.332;2023-03-14T04:45:08;10.50;1.00
20650;DHT22;10484;48.736;9.332;2023-03-14T04:47:34;10.40;1.00
20650;DHT22;10484;48.736;9.332;2023-03-14T04:50:00;10.40;1.00
20650;DHT22;10484;48.736;9.332;2023-03-14T04:52:26;10.40;1.00
20650;DHT22;10484;48.736;9.332;2023-03-14T04:54:52;10.40;1.00
20650;DHT22;10484;48.736;9.332;2023-03-14T04:57:17;10.40;1.00
20650;DHT22;10484;48.736;9.332;2023-03-14T04:59:43;10.30;1.00
20650;DHT22;10484;48.736;9.332;2023-03-14T05:02:08;10.40;1.00
20650;DHT22;10484;48.736;9.332;2023-03-14T05:04:34;10.30;1.00
20650;DHT22;10484;48.736;9.332;2023-03-14T05:07:00;10.30;1.00
20650;DHT22;10484;48.736;9.332;2023-03-14T05:09:26;10.30;1.00
20650;DHT22;10484;48.736;9.332;2023-03-14T05:11:51;10.30;1.00
20650;DHT22;10484;48.736;9.332;2023-03-14T05:14:17;10.30;1.00
20650;DHT22;10484;48.736;9.332;2023-03-14T05:16:42;10.30;1.00
20650;DHT22;10484;48.736;9.332;2023-03-14T05:19:08;10.20;1.00
20650;DHT22;10484;48.736;9.332;2023-03-14T05:21:35;10.20;1.00
20650;DHT22;10484;48.736;9.332;2023-03-14T05:24:00;10.20;1.00
20650;DHT22;10484;48.736;9.332;2023-03-14T05:26:26;10.20;1.00
20650;DHT22;10484;48.736;9.332;2023-03-14T05:28:51;10.10;1.00
20650;DHT22;10484;48.736;9.332;2023-03-14T05:31:17;10.10;1.00
20650;DHT22;10484;48.736;9.332;2023-03-14T05:33:43;10.10;1.00
20650;DHT22;10484;48.736;9.332;2023-03-14T05:36:08;10.10;1.00
20650;DHT22;10484;48.736;9.332;2023-03-14T05:38:34;10.10;1.00
20650;DHT22;10484;48.736;9.332;2023-03-14T05:40:59;10.10;1.00
20650;DHT22;10484;48.736;9.332;2023-03-14T05:43:25;10.00;1.00
20650;DHT22;10484;48.736;9.332;2023-03-14T05:45:51;10.00;1.00
20650;DHT22;10484;48.736;9.332;2023-03-14T05:48:16;10.00;1.00
20650;DHT22;10484;48.736;9.332;2023-03-14T05:50:42;10.00;1.00
20650;DHT22;10484;48.736;9.332;2023-03-14T05:53:08;10.00;1.00
20650;DHT22;10484;48.736;9.332;2023-03-14T05:55:33;10.00;1.00
20650;DHT22;10484;48.736;9.332;2023-03-14T05:57:59;10.00;1.00
20650;DHT22;10484;48.736;9.332;2023-03-14T06:00:24;9.90;1.00
20650;DHT22;10484;48.736;9.332;2023-03-14T06:02:50;9.90;1.00
20650;DHT22;10484;48.736;9.332;2023-03-14T06:05:16;9.80;1.00
20650;DHT22;10484;48.736;9.332;2023-03-14T06:07:41;9.80;1.00
20650;DHT22;10484;48.736;9.332;2023-03-14T06:10:07;9.80;1.00
20650;DHT22;10484;48.736;9.332;2023-03-14T06:12:33;9.70;1.00
20650;DHT22;10484;48.736;9.332;2023-03-14T06:14:59;9.60;1.00
20650;DHT22;10484;48.736;9.332;2023-03-14T06:17:25;9.60;1.00
20650;DHT22;10484;48.736;9.332;2023-03-14T06:19:50;9.60;1.00
20650;DHT22;10484;48.736;9.332;2023-03-14T06:22:16;9.60;1.00
20650;DHT22;10484;48.736;9.332;2023-03-14T06:24:41;9.60;1.00
20650;DHT22;10484;48.736;9.332;2023-03-14T06:27:07;9.60;1.00
20650;DHT22;10484;48.736;9.332;2023-03-14T06:29:33;9.60;1.00
20650;DHT22;10484;48.736;9.332;2023-03-14T06:31:58;9.50;1.00
20650;DHT22;10484;48.736;9.332;2023-03-14T06:34:24;9.50;1.00
20650;DHT22;10484;48.736;9.332;2023-03-14T06:36:49;9.50;1.00
20650;DHT22;10484;48.736;9.332;2023-03-14T06:39:15;9.50;1.00
20650;DHT22;10484;48.736;9.332;2023-03-14T06:41:41;9.40;1.00
20650;DHT22;10484;48.736;9.332;2023-03-14T06:44:06;9.50;1.00
20650;DHT22;10484;48.736;9.332;2023-03-14T06:46:32;9.50;1.00
20650;DHT22;10484;48.736;9.332;2023-03-14T06:48:57;9.50;1.00
20650;DHT22;10484;48.736;9.332;2023-03-14T06:51:23;9.50;1.00
20650;DHT22;10484;48.736;9.332;2023-03-14T06:53:48;9.40;1.00
20650;DHT22;10484;48.736;9.332;2023-03-14T06:56:14;9.40;1.00
20650;DHT22;10484;48.736;9.332;2023-03-14T06:58:40;9.40;1.00
20650;DHT22;10484;48.736;9.332;2023-03-14T07:01:06;9.50;1.00
20650;DHT22;10484;48.736;9.332;2023-03-14T07:03:35;9.50;1.00
20650;DHT22;10484;48.736;9.332;2023-03-14T07:06:01;9.50;1.00
20650;DHT22;10484;48.736;9.332;2023-03-14T07:08:26;9.50;1.00
20650;DHT22;10484;48.736;9.332;2023-03-14T07:10:52;9.60;1.00
20650;DHT22;10484;48.736;9.332;2023-03-14T07:13:17;9.60;1.00
20650;DHT22;10484;48.736;9.332;2023-03-14T07:15:44;9.60;1.00
20650;DHT22;10484;48.736;9.332;2023-03-14T07:18:10;9.60;1.00
20650;DHT22;10484;48.736;9.332;2023-03-14T07:20:35;9.60;1.00
20650;DHT22;10484;48.736;9.332;2023-03-14T07:23:01;9.60;1.00
20650;DHT22;10484;48.736;9.332;2023-03-14T07:25:28;9.60;1.00
20650;DHT22;10484;48.736;9.332;2023-03-14T07:27:53;9.60;1.00
20650;DHT22;10484;48.736;9.332;2023-03-14T07:30:19;9.70;1.00
20650;DHT22;10484;48.736;9.332;2023-03-14T07:32:45;9.70;1.00
20650;DHT22;10484;48.736;9.332;2023-03-14T07:35:10;9.70;1.00
20650;DHT22;10484;48.736;9.332;2023-03-14T07:37:36;9.70;1.00
20650;DHT22;10484;48.736;9.332;2023-03-14T07:40:01;9.70;1.00
20650;DHT22;10484;48.736;9.332;2023-03-14T07:42:30;9.80;1.00
20650;DHT22;10484;48.736;9.332;2023-03-14T07:44:56;9.80;1.00
20650;DHT22;10484;48.736;9.332;2023-03-14T07:47:21;9.80;1.00
20650;DHT22;10484;48.736;9.332;2023-03-14T07:49:47;9.80;1.00
20650;DHT22;10484;48.736;9.332;2023-03-14T07:52:13;9.80;1.00
20650;DHT22;10484;48.736;9.332;2023-03-14T07:54:38;9.90;1.00
20650;DHT22;10484;48.736;9.332;2023-03-14T07:57:04;9.90;1.00
20650;DHT22;10484;48.736;9.332;2023-03-14T07:59:29;9.90;1.00
20650;DHT22;10484;48.736;9.332;2023-03-14T08:01:55;9.90;1.00
20650;DHT22;10484;48.736;9.332;2023-03-14T08:04:21;9.90;1.00
20650;DHT22;10484;48.736;9.332;2023-03-14T08:06:46;10.00;1.00
20650;DHT22;10484;48.736;9.332;2023-03-14T08:09:12;10.00;1.00
20650;DHT22;10484;48.736;9.332;2023-03-14T08:11:37;10.10;1.00
20650;DHT22;10484;48.736;9.332;2023-03-14T08:14:03;10.20;1.00
20650;DHT22;10484;48.736;9.332;2023-03-14T08:16:28;10.20;1.00
20650;DHT22;10484;48.736;9.332;2023-03-14T08:18:54;10.30;1.00
20650;DHT22;10484;48.736;9.332;2023-03-14T08:21:20;10.30;1.00
20650;DHT22;10484;48.736;9.332;2023-03-14T08:23:45;10.40;1.00
20650;DHT22;10484;48.736;9.332;2023-03-14T08:26:11;10.40;1.00
20650;DHT22;10484;48.736;9.332;2023-03-14T08:28:36;10.40;1.00
20650;DHT22;10484;48.736;9.332;2023-03-14T08:31:02;10.40;1.00
20650;DHT22;10484;48.736;9.332;2023-03-14T08:33:29;10.50;1.00
20650;DHT22;10484;48.736;9.332;2023-03-14T08:35:55;10.60;1.00
20650;DHT22;10484;48.736;9.332;2023-03-14T08:38:21;10.60;1.00
20650;DHT22;10484;48.736;9.332;2023-03-14T08:40:47;10.60;1.00
20650;DHT22;10484;48.736;9.332;2023-03-14T08:43:13;10.70;1.00
20650;DHT22;10484;48.736;9.332;2023-03-14T08:45:38;10.70;1.00
20650;DHT22;10484;48.736;9.332;2023-03-14T08:48:04;10.80;1.00
20650;DHT22;10484;48.736;9.332;2023-03-14T08:50:30;10.80;1.00
20650;DHT22;10484;48.736;9.332;2023-03-14T08:52:56;10.90;1.00
20650;DHT22;10484;48.736;9.332;2023-03-14T08:55:25;11.00;1.00
20650;DHT22;10484;48.736;9.332;2023-03-14T08:57:52;11.10;1.00
20650;DHT22;10484;48.736;9.332;2023-03-14T09:00:18;11.20;1.00
20650;DHT22;10484;48.736;9.332;2023-03-14T09:02:44;11.30;1.00
20650;DHT22;10484;48.736;9.332;2023-03-14T09:05:10;11.50;1.00
20650;DHT22;10484;48.736;9.332;2023-03-14T09:07:36;11.60;1.00
20650;DHT22;10484;48.736;9.332;2023-03-14T09:10:02;11.70;1.00
20650;DHT22;10484;48.736;9.332;2023-03-14T09:12:28;11.80;1.00
20650;DHT22;10484;48.736;9.332;2023-03-14T09:14:53;11.80;1.00
20650;DHT22;10484;48.736;9.332;2023-03-14T09:17:19;11.90;1.00
20650;DHT22;10484;48.736;9.332;2023-03-14T09:19:45;12.00;1.00
20650;DHT22;10484;48.736;9.332;2023-03-14T09:22:10;12.00;1.00
20650;DHT22;10484;48.736;9.332;2023-03-14T09:24:36;11.90;1.00
20650;DHT22;10484;48.736;9.332;2023-03-14T09:27:01;11.90;1.00
20650;DHT22;10484;48.736;9.332;2023-03-14T09:29:27;12.00;1.00
20650;DHT22;10484;48.736;9.332;2023-03-14T09:31:53;12.00;1.00
20650;DHT22;10484;48.736;9.332;2023-03-14T09:34:18;12.00;1.00
20650;DHT22;10484;48.736;9.332;2023-03-14T09:36:44;12.00;1.00
20650;DHT22;10484;48.736;9.332;2023-03-14T09:39:11;12.10;1.00
20650;DHT22;10484;48.736;9.332;2023-03-14T09:41:42;12.20;1.00
20650;DHT22;10484;48.736;9.332;2023-03-14T09:44:21;12.30;1.00
20650;DHT22;10484;48.736;9.332;2023-03-14T09:46:52;12.40;1.00
20650;DHT22;10484;48.736;9.332;2023-03-14T09:49:23;12.60;1.00
20650;DHT22;10484;48.736;9.332;2023-03-14T09:51:53;12.70;1.00
20650;DHT22;10484;48.736;9.332;2023-03-14T09:54:43;12.70;1.00
20650;DHT22;10484;48.736;9.332;2023-03-14T09:57:19;12.80;1.00
20650;DHT22;10484;48.736;9.332;2023-03-14T09:59:46;12.80;1.00
20650;DHT22;10484;48.736;9.332;2023-03-14T10:02:19;12.80;1.00
20650;DHT22;10484;48.736;9.332;2023-03-14T10:04:46;12.80;1.00
20650;DHT22;10484;48.736;9.332;2023-03-14T10:07:15;12.80;1.00
20650;DHT22;10484;48.736;9.332;2023-03-14T10:09:43;12.70;1.00
20650;DHT22;10484;48.736;9.332;2023-03-14T10:12:09;12.70;1.00
20650;DHT22;10484;48.736;9.332;2023-03-14T10:14:37;12.70;1.00
20650;DHT22;10484;48.736;9.332;2023-03-14T10:17:08;12.70;1.00
20650;DHT22;10484;48.736;9.332;2023-03-14T10:19:35;12.70;1.00
20650;DHT22;10484;48.736;9.332;2023-03-14T10:22:03;12.70;1.00
20650;DHT22;10484;48.736;9.332;2023-03-14T10:24:34;12.70;1.00
20650;DHT22;10484;48.736;9.332;2023-03-14T10:27:04;12.70;1.00
20650;DHT22;10484;48.736;9.332;2023-03-14T10:29:31;12.90;1.00
20650;DHT22;10484;48.736;9.332;2023-03-14T10:32:03;13.00;1.00
20650;DHT22;10484;48.736;9.332;2023-03-14T10:34:33;13.20;1.00
20650;DHT22;10484;48.736;9.332;2023-03-14T10:37:21;13.40;1.00
20650;DHT22;10484;48.736;9.332;2023-03-14T10:39:55;13.60;1.00
20650;DHT22;10484;48.736;9.332;2023-03-14T10:42:28;13.70;1.00
20650;DHT22;10484;48.736;9.332;2023-03-14T10:45:02;13.80;1.00
20650;DHT22;10484;48.736;9.332;2023-03-14T10:47:29;13.80;1.00
20650;DHT22;10484;48.736;9.332;2023-03-14T10:49:56;13.80;1.00
20650;DHT22;10484;48.736;9.332;2023-03-14T10:52:27;13.80;1.00
20650;DHT22;10484;48.736;9.332;2023-03-14T10:55:09;13.80;1.00
20650;DHT22;10484;48.736;9.332;2023-03-14T10:57:40;13.80;1.00
20650;DHT22;10484;48.736;9.332;2023-03-14T11:00:09;13.70;1.00
20650;DHT22;10484;48.736;9.332;2023-03-14T11:02:49;13.70;1.00
20650;DHT22;10484;48.736;9.332;2023-03-14T11:11:15;13.60;1.00
20650;DHT22;10484;48.736;9.332;2023-03-14T11:19:35;13.50;1.00
20650;DHT22;10484;48.736;9.332;2023-03-14T11:22:55;13.50;1.00
20650;DHT22;10484;48.736;9.332;2023-03-14T11:25:32;13.50;1.00
20650;DHT22;10484;48.736;9.332;2023-03-14T11:28:09;13.40;1.00
20650;DHT22;10484;48.736;9.332;2023-03-14T11:30:54;13.40;1.00
20650;DHT22;10484;48.736;9.332;2023-03-14T11:33:28;13.40;1.00
20650;DHT22;10484;48.736;9.332;2023-03-14T11:36:04;13.40;1.00
20650;DHT22;10484;48.736;9.332;2023-03-14T11:41:10;13.40;1.00
20650;DHT22;10484;48.736;9.332;2023-03-14T11:43:41;13.40;1.00
20650;DHT22;10484;48.736;9.332;2023-03-14T11:46:18;13.40;1.00
20650;DHT22;10484;48.736;9.332;2023-03-14T11:48:55;13.40;1.00
20650;DHT22;10484;48.736;9.332;2023-03-14T11:51:43;13.40;1.00
20650;DHT22;10484;48.736;9.332;2023-03-14T11:54:34;13.40;1.00
20650;DHT22;10484;48.736;9.332;2023-03-14T11:59:51;13.30;1.00
20650;DHT22;10484;48.736;9.332;2023-03-14T12:02:33;13.30;1.00
20650;DHT22;10484;48.736;9.332;2023-03-14T12:10:24;13.30;1.00
20650;DHT22;10484;48.736;9.332;2023-03-14T12:12:49;13.30;1.00
20650;DHT22;10484;48.736;9.332;2023-03-14T12:15:20;13.30;1.00
20650;DHT22;10484;48.736;9.332;2023-03-14T12:17:47;13.30;1.00
20650;DHT22;10484;48.736;9.332;2023-03-14T12:20:21;13.30;1.00
20650;DHT22;10484;48.736;9.332;2023-03-14T12:22:53;13.30;1.00
20650;DHT22;10484;48.736;9.332;2023-03-14T12:25:26;13.20;1.00
20650;DHT22;10484;48.736;9.332;2023-03-14T12:30:29;13.20;1.00
20650;DHT22;10484;48.736;9.332;2023-03-14T12:33:11;13.20;1.00
20650;DHT22;10484;48.736;9.332;2023-03-14T12:35:38;13.20;1.00
20650;DHT22;10484;48.736;9.332;2023-03-14T12:38:10;13.20;1.00
20650;DHT22;10484;48.736;9.332;2023-03-14T12:43:31;12.80;1.00
20650;DHT22;10484;48.736;9.332;2023-03-14T12:46:23;12.80;1.00
20650;DHT22;10484;48.736;9.332;2023-03-14T12:51:34;12.70;1.00
20650;DHT22;10484;48.736;9.332;2023-03-14T12:57:03;12.70;1.00
20650;DHT22;10484;48.736;9.332;2023-03-14T12:59:52;12.80;1.00
20650;DHT22;10484;48.736;9.332;2023-03-14T13:02:36;12.70;1.00
20650;DHT22;10484;48.736;9.332;2023-03-14T13:05:25;12.70;1.00
20650;DHT22;10484;48.736;9.332;2023-03-14T13:10:41;12.70;1.00
20650;DHT22;10484;48.736;9.332;2023-03-14T13:13:19;12.70;1.00
20650;DHT22;10484;48.736;9.332;2023-03-14T13:15:47;12.70;1.00
20650;DHT22;10484;48.736;9.332;2023-03-14T13:18:16;12.80;1.00
20650;DHT22;10484;48.736;9.332;2023-03-14T13:20:51;12.90;1.00
20650;DHT22;10484;48.736;9.332;2023-03-14T13:23:23;12.80;1.00
20650;DHT22;10484;48.736;9.332;2023-03-14T13:25:49;12.90;1.00
20650;DHT22;10484;48.736;9.332;2023-03-14T13:28:15;12.90;1.00
20650;DHT22;10484;48.736;9.332;2023-03-14T13:30:44;12.80;1.00
20650;DHT22;10484;48.736;9.332;2023-03-14T13:33:19;12.80;1.00
20650;DHT22;10484;48.736;9.332;2023-03-14T13:35:46;12.70;1.00
20650;DHT22;10484;48.736;9.332;2023-03-14T13:38:18;12.80;1.00
20650;DHT22;10484;48.736;9.332;2023-03-14T13:40:46;12.80;1.00
20650;DHT22;10484;48.736;9.332;2023-03-14T13:45:56;12.90;1.00
20650;DHT22;10484;48.736;9.332;2023-03-14T13:48:28;12.70;1.00
20650;DHT22;10484;48.736;9.332;2023-03-14T13:51:05;12.60;1.00
20650;DHT22;10484;48.736;9.332;2023-03-14T13:53:32;12.50;1.00
20650;DHT22;10484;48.736;9.332;2023-03-14T13:56:02;12.60;1.00
20650;DHT22;10484;48.736;9.332;2023-03-14T13:58:30;12.70;1.00
20650;DHT22;10484;48.736;9.332;2023-03-14T14:01:06;12.80;1.00
20650;DHT22;10484;48.736;9.332;2023-03-14T14:03:38;12.80;1.00
20650;DHT22;10484;48.736;9.332;2023-03-14T14:06:44;12.80;1.00
20650;DHT22;10484;48.736;9.332;2023-03-14T14:09:10;12.70;1.00
20650;DHT22;10484;48.736;9.332;2023-03-14T14:11:52;12.50;1.00
20650;DHT22;10484;48.736;9.332;2023-03-14T14:14:27;12.50;1.00
20650;DHT22;10484;48.736;9.332;2023-03-14T14:16:54;12.50;1.00
20650;DHT22;10484;48.736;9.332;2023-03-14T14:19:23;12.50;1.00
20650;DHT22;10484;48.736;9.332;2023-03-14T14:21:49;12.50;1.00
20650;DHT22;10484;48.736;9.332;2023-03-14T14:24:16;12.50;1.00
20650;DHT22;10484;48.736;9.332;2023-03-14T14:26:47;12.60;1.00
20650;DHT22;10484;48.736;9.332;2023-03-14T14:32:11;12.70;1.00
20650;DHT22;10484;48.736;9.332;2023-03-14T14:34:41;12.50;1.00
20650;DHT22;10484;48.736;9.332;2023-03-14T14:37:19;12.40;1.00
20650;DHT22;10484;48.736;9.332;2023-03-14T14:39:46;12.50;1.00
20650;DHT22;10484;48.736;9.332;2023-03-14T14:42:16;12.40;1.00
20650;DHT22;10484;48.736;9.332;2023-03-14T14:44:43;12.50;1.00
20650;DHT22;10484;48.736;9.332;2023-03-14T14:47:13;12.40;1.00
20650;DHT22;10484;48.736;9.332;2023-03-14T14:49:39;12.30;1.00
20650;DHT22;10484;48.736;9.332;2023-03-14T14:52:17;12.20;1.00
20650;DHT22;10484;48.736;9.332;2023-03-14T14:54:57;12.30;1.00
20650;DHT22;10484;48.736;9.332;2023-03-14T14:57:29;12.30;1.00
20650;DHT22;10484;48.736;9.332;2023-03-14T15:00:04;12.40;1.00
20650;DHT22;10484;48.736;9.332;2023-03-14T15:02:40;12.50;1.00
20650;DHT22;10484;48.736;9.332;2023-03-14T15:05:15;12.50;1.00
20650;DHT22;10484;48.736;9.332;2023-03-14T15:07:41;12.40;1.00
20650;DHT22;10484;48.736;9.332;2023-03-14T15:10:12;12.50;1.00
20650;DHT22;10484;48.736;9.332;2023-03-14T15:12:38;12.50;1.00
20650;DHT22;10484;48.736;9.332;2023-03-14T15:15:04;12.40;1.00
20650;DHT22;10484;48.736;9.332;2023-03-14T15:17:30;12.20;1.00
20650;DHT22;10484;48.736;9.332;2023-03-14T15:19:56;12.20;1.00
20650;DHT22;10484;48.736;9.332;2023-03-14T15:22:23;12.30;1.00
20650;DHT22;10484;48.736;9.332;2023-03-14T15:24:48;12.30;1.00
20650;DHT22;10484;48.736;9.332;2023-03-14T15:27:16;12.30;1.00
20650;DHT22;10484;48.736;9.332;2023-03-14T15:29:42;12.40;1.00
20650;DHT22;10484;48.736;9.332;2023-03-14T15:32:16;12.40;1.00
20650;DHT22;10484;48.736;9.332;2023-03-14T15:34:43;12.40;1.00
20650;DHT22;10484;48.736;9.332;2023-03-14T15:37:14;12.40;1.00
20650;DHT22;10484;48.736;9.332;2023-03-14T15:39:44;12.40;1.00
20650;DHT22;10484;48.736;9.332;2023-03-14T15:42:10;12.20;1.00
20650;DHT22;10484;48.736;9.332;2023-03-14T15:44:35;12.10;1.00
20650;DHT22;10484;48.736;9.332;2023-03-14T15:47:01;12.10;1.00
20650;DHT22;10484;48.736;9.332;2023-03-14T15:49:28;12.10;1.00
20650;DHT22;10484;48.736;9.332;2023-03-14T15:51:53;12.10;1.00
20650;DHT22;10484;48.736;9.332;2023-03-14T15:54:19;12.10;1.00
20650;DHT22;10484;48.736;9.332;2023-03-14T15:56:44;12.10;1.00
20650;DHT22;10484;48.736;9.332;2023-03-14T15:59:10;12.20;1.00
20650;DHT22;10484;48.736;9.332;2023-03-14T16:01:36;12.10;1.00
20650;DHT22;10484;48.736;9.332;2023-03-14T16:04:01;12.00;1.00
20650;DHT22;10484;48.736;9.332;2023-03-14T16:06:28;12.10;1.00
20650;DHT22;10484;48.736;9.332;2023-03-14T16:08:54;12.00;1.00
20650;DHT22;10484;48.736;9.332;2023-03-14T16:11:19;12.00;1.00
20650;DHT22;10484;48.736;9.332;2023-03-14T16:13:45;12.10;1.00
20650;DHT22;10484;48.736;9.332;2023-03-14T16:16:11;12.10;1.00
20650;DHT22;10484;48.736;9.332;2023-03-14T16:18:40;12.10;1.00
20650;DHT22;10484;48.736;9.332;2023-03-14T16:21:16;12.20;1.00
20650;DHT22;10484;48.736;9.332;2023-03-14T16:23:42;12.10;1.00
20650;DHT22;10484;48.736;9.332;2023-03-14T16:26:10;12.10;1.00
20650;DHT22;10484;48.736;9.332;2023-03-14T16:28:37;12.10;1.00
20650;DHT22;10484;48.736;9.332;2023-03-14T16:31:04;12.00;1.00
20650;DHT22;10484;48.736;9.332;2023-03-14T16:33:31;12.00;1.00
20650;DHT22;10484;48.736;9.332;2023-03-14T16:35:58;12.10;1.00
20650;DHT22;10484;48.736;9.332;2023-03-14T16:38:31;12.10;1.00
20650;DHT22;10484;48.736;9.332;2023-03-14T16:40:59;12.10;1.00